Hovedside
METAR-TAF:

METAR-TAF

Lufthavner :

Saint Vincent, Saint Vincent og Grenadinene

breddegrad: 13-09-23N, lengdegrad: 061-09-01W, høyde over havet: 41 m

Gjeldene værobservasjon

Denne rapporten ble laget for 51 minutter siden, klokken 13:00 UTC
Vind 8 kt fra Nordøst
Temperatur 31°C
Luftfuktighet 71%
Trykk 1015 hPa
Sikt 10 km eller mer
Spredte skyer i en høyde av 2000 ft

METAR: TVSA 191300Z 05008KT 9999 SCT020 31/25 Q1015 NOSIG

Tid: 09:51 (13:51 UTC)

Varsel

Denne rapporten ble laget for 2 timer og 51 minutter siden, klokken 11:00 UTC
Varsel gyldig fra 19. klokken 12 UTC til 20. klokken 12 UTC
Vind 5 kt fra Nordøst
Sikt 10 km eller mer
Spredte skyer i en høyde av 1800 ft

TAF: TVSA 191100Z 1912/2012 05005KT 9999 SCT018

Værobservasjoner og værvarsel for over 4000 flyplasser (METAR- og TAF-rapporter).

Tilgjengelige stasjoner er representert av de røde og gule prikkene på kartet.

Hold musepekeren over prikken for å se navnet på stasjonen.

Klikk så for å se værobservasjoner og -varsler.

For å forandre kartet kan du klikke på den grønne knappen med svart kryss for å zoome inn, på den grønne knappen med strek for å zoome ut, eller på de grønne pilene for å se tilstøtende kart.


METAR-TAF: